sensor_id;sensor_type;location;lat;lon;timestamp;P1;durP1;ratioP1;P2;durP2;ratioP2
10761;SDS011;5433;50.862;4.320;2022-07-23T00:01:09;15.48;;;13.23;;
10761;SDS011;5433;50.862;4.320;2022-07-23T00:03:35;15.23;;;13.60;;
10761;SDS011;5433;50.862;4.320;2022-07-23T00:06:01;14.77;;;12.95;;
10761;SDS011;5433;50.862;4.320;2022-07-23T00:08:27;16.92;;;13.23;;
10761;SDS011;5433;50.862;4.320;2022-07-23T00:10:53;17.10;;;13.00;;
10761;SDS011;5433;50.862;4.320;2022-07-23T00:13:19;14.73;;;13.23;;
10761;SDS011;5433;50.862;4.320;2022-07-23T00:15:45;14.43;;;12.93;;
10761;SDS011;5433;50.862;4.320;2022-07-23T00:18:11;15.50;;;13.60;;
10761;SDS011;5433;50.862;4.320;2022-07-23T00:20:37;14.30;;;12.98;;
10761;SDS011;5433;50.862;4.320;2022-07-23T00:23:03;14.80;;;13.30;;
10761;SDS011;5433;50.862;4.320;2022-07-23T00:25:29;16.27;;;13.27;;
10761;SDS011;5433;50.862;4.320;2022-07-23T00:27:58;15.30;;;13.55;;
10761;SDS011;5433;50.862;4.320;2022-07-23T00:30:25;14.50;;;13.10;;
10761;SDS011;5433;50.862;4.320;2022-07-23T00:32:52;14.63;;;13.13;;
10761;SDS011;5433;50.862;4.320;2022-07-23T00:35:19;14.82;;;13.32;;
10761;SDS011;5433;50.862;4.320;2022-07-23T00:37:46;14.95;;;13.40;;
10761;SDS011;5433;50.862;4.320;2022-07-23T00:40:13;15.80;;;13.70;;
10761;SDS011;5433;50.862;4.320;2022-07-23T00:42:39;17.10;;;13.40;;
10761;SDS011;5433;50.862;4.320;2022-07-23T00:45:05;15.52;;;13.80;;
10761;SDS011;5433;50.862;4.320;2022-07-23T00:47:32;16.40;;;14.07;;
10761;SDS011;5433;50.862;4.320;2022-07-23T00:49:58;15.63;;;12.88;;
10761;SDS011;5433;50.862;4.320;2022-07-23T00:52:24;15.90;;;14.05;;
10761;SDS011;5433;50.862;4.320;2022-07-23T00:54:50;18.45;;;13.85;;
10761;SDS011;5433;50.862;4.320;2022-07-23T00:57:25;16.65;;;13.98;;
10761;SDS011;5433;50.862;4.320;2022-07-23T00:59:51;16.17;;;13.45;;
10761;SDS011;5433;50.862;4.320;2022-07-23T01:02:17;15.80;;;14.02;;
10761;SDS011;5433;50.862;4.320;2022-07-23T01:04:43;15.80;;;14.18;;
10761;SDS011;5433;50.862;4.320;2022-07-23T01:07:09;15.15;;;13.55;;
10761;SDS011;5433;50.862;4.320;2022-07-23T01:09:36;17.73;;;13.82;;
10761;SDS011;5433;50.862;4.320;2022-07-23T01:12:02;15.40;;;13.38;;
10761;SDS011;5433;50.862;4.320;2022-07-23T01:14:28;15.35;;;13.73;;
10761;SDS011;5433;50.862;4.320;2022-07-23T01:16:54;16.85;;;13.35;;
10761;SDS011;5433;50.862;4.320;2022-07-23T01:19:20;15.38;;;12.77;;
10761;SDS011;5433;50.862;4.320;2022-07-23T01:21:47;16.00;;;13.90;;
10761;SDS011;5433;50.862;4.320;2022-07-23T01:24:13;15.70;;;12.95;;
10761;SDS011;5433;50.862;4.320;2022-07-23T01:26:43;14.77;;;13.27;;
10761;SDS011;5433;50.862;4.320;2022-07-23T01:29:09;15.68;;;14.02;;
10761;SDS011;5433;50.862;4.320;2022-07-23T01:31:35;16.98;;;13.82;;
10761;SDS011;5433;50.862;4.320;2022-07-23T01:34:01;16.52;;;14.27;;
10761;SDS011;5433;50.862;4.320;2022-07-23T01:36:27;16.48;;;13.32;;
10761;SDS011;5433;50.862;4.320;2022-07-23T01:38:54;15.88;;;14.18;;
10761;SDS011;5433;50.862;4.320;2022-07-23T01:41:20;17.60;;;13.48;;
10761;SDS011;5433;50.862;4.320;2022-07-23T01:43:46;16.00;;;13.88;;
10761;SDS011;5433;50.862;4.320;2022-07-23T01:46:12;15.25;;;13.65;;
10761;SDS011;5433;50.862;4.320;2022-07-23T01:48:38;15.38;;;12.98;;
10761;SDS011;5433;50.862;4.320;2022-07-23T01:51:04;16.55;;;14.05;;
10761;SDS011;5433;50.862;4.320;2022-07-23T01:53:30;17.08;;;14.40;;
10761;SDS011;5433;50.862;4.320;2022-07-23T01:55:57;16.10;;;12.88;;
10761;SDS011;5433;50.862;4.320;2022-07-23T01:58:23;16.02;;;13.43;;
10761;SDS011;5433;50.862;4.320;2022-07-23T02:00:49;15.25;;;13.63;;
10761;SDS011;5433;50.862;4.320;2022-07-23T02:03:15;14.75;;;13.18;;
10761;SDS011;5433;50.862;4.320;2022-07-23T02:05:42;15.30;;;13.70;;
10761;SDS011;5433;50.862;4.320;2022-07-23T02:08:07;14.48;;;13.07;;
10761;SDS011;5433;50.862;4.320;2022-07-23T02:10:34;14.75;;;13.18;;
10761;SDS011;5433;50.862;4.320;2022-07-23T02:13:00;14.18;;;12.68;;
10761;SDS011;5433;50.862;4.320;2022-07-23T02:15:26;16.83;;;13.73;;
10761;SDS011;5433;50.862;4.320;2022-07-23T02:17:53;14.75;;;12.90;;
10761;SDS011;5433;50.862;4.320;2022-07-23T02:20:19;16.40;;;13.15;;
10761;SDS011;5433;50.862;4.320;2022-07-23T02:22:45;14.68;;;12.55;;
10761;SDS011;5433;50.862;4.320;2022-07-23T02:25:11;16.50;;;13.07;;
10761;SDS011;5433;50.862;4.320;2022-07-23T02:27:37;14.55;;;13.05;;
10761;SDS011;5433;50.862;4.320;2022-07-23T02:30:03;16.35;;;13.15;;
10761;SDS011;5433;50.862;4.320;2022-07-23T02:32:29;15.15;;;12.75;;
10761;SDS011;5433;50.862;4.320;2022-07-23T02:34:55;15.13;;;12.80;;
10761;SDS011;5433;50.862;4.320;2022-07-23T02:37:21;14.25;;;12.65;;
10761;SDS011;5433;50.862;4.320;2022-07-23T02:39:47;15.70;;;13.43;;
10761;SDS011;5433;50.862;4.320;2022-07-23T02:42:14;16.65;;;13.27;;
10761;SDS011;5433;50.862;4.320;2022-07-23T02:44:40;18.02;;;13.60;;
10761;SDS011;5433;50.862;4.320;2022-07-23T02:47:06;14.93;;;13.32;;
10761;SDS011;5433;50.862;4.320;2022-07-23T02:49:32;14.48;;;12.95;;
10761;SDS011;5433;50.862;4.320;2022-07-23T02:51:58;14.52;;;13.02;;
10761;SDS011;5433;50.862;4.320;2022-07-23T02:54:24;14.80;;;13.20;;
10761;SDS011;5433;50.862;4.320;2022-07-23T02:56:50;15.80;;;13.50;;
10761;SDS011;5433;50.862;4.320;2022-07-23T02:59:17;17.45;;;14.50;;
10761;SDS011;5433;50.862;4.320;2022-07-23T03:01:43;15.25;;;13.65;;
10761;SDS011;5433;50.862;4.320;2022-07-23T03:04:09;15.95;;;14.35;;
10761;SDS011;5433;50.862;4.320;2022-07-23T03:06:35;16.02;;;14.32;;
10761;SDS011;5433;50.862;4.320;2022-07-23T03:09:01;15.60;;;14.10;;
10761;SDS011;5433;50.862;4.320;2022-07-23T03:11:28;16.38;;;14.70;;
10761;SDS011;5433;50.862;4.320;2022-07-23T03:13:54;18.08;;;14.73;;
10761;SDS011;5433;50.862;4.320;2022-07-23T03:16:20;16.42;;;14.73;;
10761;SDS011;5433;50.862;4.320;2022-07-23T03:18:46;17.83;;;14.77;;
10761;SDS011;5433;50.862;4.320;2022-07-23T03:21:20;18.60;;;14.73;;
10761;SDS011;5433;50.862;4.320;2022-07-23T03:23:46;17.27;;;14.35;;
10761;SDS011;5433;50.862;4.320;2022-07-23T03:26:12;16.88;;;15.02;;
10761;SDS011;5433;50.862;4.320;2022-07-23T03:28:39;16.95;;;14.25;;
10761;SDS011;5433;50.862;4.320;2022-07-23T03:31:05;17.73;;;14.48;;
10761;SDS011;5433;50.862;4.320;2022-07-23T03:33:31;18.80;;;15.02;;
10761;SDS011;5433;50.862;4.320;2022-07-23T03:35:57;18.27;;;14.50;;
10761;SDS011;5433;50.862;4.320;2022-07-23T03:38:23;16.77;;;14.93;;
10761;SDS011;5433;50.862;4.320;2022-07-23T03:40:49;15.18;;;13.50;;
10761;SDS011;5433;50.862;4.320;2022-07-23T03:43:15;15.88;;;14.18;;
10761;SDS011;5433;50.862;4.320;2022-07-23T03:45:41;16.90;;;14.77;;
10761;SDS011;5433;50.862;4.320;2022-07-23T03:48:07;16.63;;;14.93;;
10761;SDS011;5433;50.862;4.320;2022-07-23T03:50:33;17.30;;;15.50;;
10761;SDS011;5433;50.862;4.320;2022-07-23T03:52:59;15.75;;;13.85;;
10761;SDS011;5433;50.862;4.320;2022-07-23T03:55:25;17.92;;;15.18;;
10761;SDS011;5433;50.862;4.320;2022-07-23T03:57:51;17.70;;;15.02;;
10761;SDS011;5433;50.862;4.320;2022-07-23T04:00:18;17.02;;;14.38;;
10761;SDS011;5433;50.862;4.320;2022-07-23T04:02:44;15.65;;;13.88;;
10761;SDS011;5433;50.862;4.320;2022-07-23T04:05:10;17.23;;;13.93;;
10761;SDS011;5433;50.862;4.320;2022-07-23T04:07:36;16.88;;;13.68;;
10761;SDS011;5433;50.862;4.320;2022-07-23T04:10:02;16.45;;;14.55;;
10761;SDS011;5433;50.862;4.320;2022-07-23T04:12:29;16.13;;;14.45;;
10761;SDS011;5433;50.862;4.320;2022-07-23T04:14:55;16.02;;;13.98;;
10761;SDS011;5433;50.862;4.320;2022-07-23T04:17:21;18.05;;;14.65;;
10761;SDS011;5433;50.862;4.320;2022-07-23T04:19:47;15.15;;;13.55;;
10761;SDS011;5433;50.862;4.320;2022-07-23T04:22:13;16.30;;;13.73;;
10761;SDS011;5433;50.862;4.320;2022-07-23T04:24:39;15.77;;;13.68;;
10761;SDS011;5433;50.862;4.320;2022-07-23T04:27:05;14.88;;;13.38;;
10761;SDS011;5433;50.862;4.320;2022-07-23T04:29:31;15.13;;;13.52;;
10761;SDS011;5433;50.862;4.320;2022-07-23T04:31:58;15.40;;;13.68;;
10761;SDS011;5433;50.862;4.320;2022-07-23T04:34:24;15.32;;;13.73;;
10761;SDS011;5433;50.862;4.320;2022-07-23T04:36:51;15.13;;;12.68;;
10761;SDS011;5433;50.862;4.320;2022-07-23T04:39:18;16.52;;;13.27;;
10761;SDS011;5433;50.862;4.320;2022-07-23T04:41:44;16.80;;;13.32;;
10761;SDS011;5433;50.862;4.320;2022-07-23T04:44:10;14.55;;;13.07;;
10761;SDS011;5433;50.862;4.320;2022-07-23T04:46:36;14.40;;;12.60;;
10761;SDS011;5433;50.862;4.320;2022-07-23T04:49:02;15.32;;;12.95;;
10761;SDS011;5433;50.862;4.320;2022-07-23T04:51:28;15.88;;;12.57;;
10761;SDS011;5433;50.862;4.320;2022-07-23T04:53:54;15.38;;;13.13;;
10761;SDS011;5433;50.862;4.320;2022-07-23T04:56:20;13.60;;;12.20;;
10761;SDS011;5433;50.862;4.320;2022-07-23T04:58:46;13.93;;;12.45;;
10761;SDS011;5433;50.862;4.320;2022-07-23T05:01:13;13.48;;;11.68;;
10761;SDS011;5433;50.862;4.320;2022-07-23T05:03:39;13.43;;;11.85;;
10761;SDS011;5433;50.862;4.320;2022-07-23T05:06:06;13.40;;;11.55;;
10761;SDS011;5433;50.862;4.320;2022-07-23T05:08:32;13.23;;;11.38;;
10761;SDS011;5433;50.862;4.320;2022-07-23T05:10:58;12.88;;;11.23;;
10761;SDS011;5433;50.862;4.320;2022-07-23T05:13:24;13.00;;;10.65;;
10761;SDS011;5433;50.862;4.320;2022-07-23T05:15:50;12.00;;;10.80;;
10761;SDS011;5433;50.862;4.320;2022-07-23T05:18:16;14.95;;;11.23;;
10761;SDS011;5433;50.862;4.320;2022-07-23T05:20:42;14.25;;;11.88;;
10761;SDS011;5433;50.862;4.320;2022-07-23T05:23:08;12.80;;;11.00;;
10761;SDS011;5433;50.862;4.320;2022-07-23T05:25:35;12.43;;;11.05;;
10761;SDS011;5433;50.862;4.320;2022-07-23T05:28:01;14.60;;;11.07;;
10761;SDS011;5433;50.862;4.320;2022-07-23T05:30:27;13.32;;;11.63;;
10761;SDS011;5433;50.862;4.320;2022-07-23T05:32:53;14.35;;;10.75;;
10761;SDS011;5433;50.862;4.320;2022-07-23T05:35:19;13.60;;;11.63;;
10761;SDS011;5433;50.862;4.320;2022-07-23T05:37:46;12.52;;;11.32;;
10761;SDS011;5433;50.862;4.320;2022-07-23T05:40:12;13.70;;;11.45;;
10761;SDS011;5433;50.862;4.320;2022-07-23T05:42:39;12.27;;;10.98;;
10761;SDS011;5433;50.862;4.320;2022-07-23T05:45:06;15.32;;;11.75;;
10761;SDS011;5433;50.862;4.320;2022-07-23T05:47:41;14.35;;;11.52;;
10761;SDS011;5433;50.862;4.320;2022-07-23T05:50:07;13.50;;;12.00;;
10761;SDS011;5433;50.862;4.320;2022-07-23T05:52:33;15.07;;;12.18;;
10761;SDS011;5433;50.862;4.320;2022-07-23T05:54:59;12.98;;;11.65;;
10761;SDS011;5433;50.862;4.320;2022-07-23T05:57:25;13.07;;;11.70;;
10761;SDS011;5433;50.862;4.320;2022-07-23T05:59:51;13.82;;;12.13;;
10761;SDS011;5433;50.862;4.320;2022-07-23T06:02:18;14.95;;;12.20;;
10761;SDS011;5433;50.862;4.320;2022-07-23T06:04:44;15.00;;;12.32;;
10761;SDS011;5433;50.862;4.320;2022-07-23T06:07:11;14.15;;;11.98;;
10761;SDS011;5433;50.862;4.320;2022-07-23T06:09:37;13.55;;;12.20;;
10761;SDS011;5433;50.862;4.320;2022-07-23T06:12:03;13.40;;;11.93;;
10761;SDS011;5433;50.862;4.320;2022-07-23T06:17:23;14.32;;;12.80;;
10761;SDS011;5433;50.862;4.320;2022-07-23T06:19:49;14.43;;;12.15;;
10761;SDS011;5433;50.862;4.320;2022-07-23T06:22:15;15.20;;;12.50;;
10761;SDS011;5433;50.862;4.320;2022-07-23T06:24:41;14.10;;;12.35;;
10761;SDS011;5433;50.862;4.320;2022-07-23T06:27:07;13.77;;;12.27;;
10761;SDS011;5433;50.862;4.320;2022-07-23T06:29:33;14.07;;;12.27;;
10761;SDS011;5433;50.862;4.320;2022-07-23T06:31:59;14.15;;;12.40;;
10761;SDS011;5433;50.862;4.320;2022-07-23T06:34:26;16.42;;;12.38;;
10761;SDS011;5433;50.862;4.320;2022-07-23T06:36:52;14.05;;;12.43;;
10761;SDS011;5433;50.862;4.320;2022-07-23T06:39:18;14.52;;;12.80;;
10761;SDS011;5433;50.862;4.320;2022-07-23T06:41:44;13.65;;;11.82;;
10761;SDS011;5433;50.862;4.320;2022-07-23T06:44:10;14.38;;;12.98;;
10761;SDS011;5433;50.862;4.320;2022-07-23T06:46:36;13.07;;;11.68;;
10761;SDS011;5433;50.862;4.320;2022-07-23T06:49:02;13.10;;;11.57;;
10761;SDS011;5433;50.862;4.320;2022-07-23T06:51:29;13.82;;;12.13;;
10761;SDS011;5433;50.862;4.320;2022-07-23T06:53:55;12.85;;;11.52;;
10761;SDS011;5433;50.862;4.320;2022-07-23T06:56:21;13.63;;;12.07;;
10761;SDS011;5433;50.862;4.320;2022-07-23T06:58:47;15.88;;;12.88;;
10761;SDS011;5433;50.862;4.320;2022-07-23T07:01:13;13.82;;;11.65;;
10761;SDS011;5433;50.862;4.320;2022-07-23T07:03:39;14.00;;;11.85;;
10761;SDS011;5433;50.862;4.320;2022-07-23T07:06:05;14.32;;;11.60;;
10761;SDS011;5433;50.862;4.320;2022-07-23T07:08:31;12.93;;;11.48;;
10761;SDS011;5433;50.862;4.320;2022-07-23T07:10:57;13.48;;;11.82;;
10761;SDS011;5433;50.862;4.320;2022-07-23T07:13:23;13.15;;;11.82;;
10761;SDS011;5433;50.862;4.320;2022-07-23T07:15:49;15.32;;;11.68;;
10761;SDS011;5433;50.862;4.320;2022-07-23T07:18:15;14.98;;;11.30;;
10761;SDS011;5433;50.862;4.320;2022-07-23T07:20:42;12.93;;;11.60;;
10761;SDS011;5433;50.862;4.320;2022-07-23T07:23:07;13.48;;;11.20;;
10761;SDS011;5433;50.862;4.320;2022-07-23T07:25:34;13.00;;;11.57;;
10761;SDS011;5433;50.862;4.320;2022-07-23T07:28:00;12.73;;;10.50;;
10761;SDS011;5433;50.862;4.320;2022-07-23T07:30:27;13.35;;;10.77;;
10761;SDS011;5433;50.862;4.320;2022-07-23T07:32:53;14.18;;;11.20;;
10761;SDS011;5433;50.862;4.320;2022-07-23T07:35:19;11.52;;;10.40;;
10761;SDS011;5433;50.862;4.320;2022-07-23T07:37:45;13.40;;;11.45;;
10761;SDS011;5433;50.862;4.320;2022-07-23T07:40:11;11.48;;;10.25;;
10761;SDS011;5433;50.862;4.320;2022-07-23T07:42:44;12.93;;;9.68;;
10761;SDS011;5433;50.862;4.320;2022-07-23T07:45:10;12.18;;;10.18;;
10761;SDS011;5433;50.862;4.320;2022-07-23T07:50:40;11.35;;;9.60;;
10761;SDS011;5433;50.862;4.320;2022-07-23T07:53:06;13.23;;;10.20;;
10761;SDS011;5433;50.862;4.320;2022-07-23T07:55:32;10.13;;;9.05;;
10761;SDS011;5433;50.862;4.320;2022-07-23T07:57:58;10.40;;;8.85;;
10761;SDS011;5433;50.862;4.320;2022-07-23T08:00:24;12.20;;;9.27;;
10761;SDS011;5433;50.862;4.320;2022-07-23T08:02:50;11.38;;;9.55;;
10761;SDS011;5433;50.862;4.320;2022-07-23T08:05:20;11.55;;;9.20;;
10761;SDS011;5433;50.862;4.320;2022-07-23T08:07:47;11.05;;;9.50;;
10761;SDS011;5433;50.862;4.320;2022-07-23T08:10:13;11.27;;;9.05;;
10761;SDS011;5433;50.862;4.320;2022-07-23T08:12:43;11.05;;;9.95;;
10761;SDS011;5433;50.862;4.320;2022-07-23T08:18:13;11.10;;;9.35;;
10761;SDS011;5433;50.862;4.320;2022-07-23T08:20:39;13.10;;;9.20;;
10761;SDS011;5433;50.862;4.320;2022-07-23T08:26:09;10.13;;;9.00;;
10761;SDS011;5433;50.862;4.320;2022-07-23T08:28:35;10.05;;;7.18;;
10761;SDS011;5433;50.862;4.320;2022-07-23T08:31:01;9.45;;;8.38;;
10761;SDS011;5433;50.862;4.320;2022-07-23T08:33:27;12.00;;;8.60;;
10761;SDS011;5433;50.862;4.320;2022-07-23T08:35:54;10.73;;;8.73;;
10761;SDS011;5433;50.862;4.320;2022-07-23T08:38:21;11.05;;;8.25;;
10761;SDS011;5433;50.862;4.320;2022-07-23T08:40:48;9.80;;;8.38;;
10761;SDS011;5433;50.862;4.320;2022-07-23T08:43:16;13.77;;;9.13;;
10761;SDS011;5433;50.862;4.320;2022-07-23T08:45:43;10.38;;;8.75;;
10761;SDS011;5433;50.862;4.320;2022-07-23T08:48:14;12.73;;;8.75;;
10761;SDS011;5433;50.862;4.320;2022-07-23T08:50:44;10.27;;;8.20;;
10761;SDS011;5433;50.862;4.320;2022-07-23T08:53:10;9.02;;;8.13;;
10761;SDS011;5433;50.862;4.320;2022-07-23T08:55:37;11.30;;;8.75;;
10761;SDS011;5433;50.862;4.320;2022-07-23T08:58:03;9.10;;;7.97;;
10761;SDS011;5433;50.862;4.320;2022-07-23T09:00:29;8.68;;;7.80;;
10761;SDS011;5433;50.862;4.320;2022-07-23T09:02:55;9.15;;;7.85;;
10761;SDS011;5433;50.862;4.320;2022-07-23T09:05:21;10.23;;;8.55;;
10761;SDS011;5433;50.862;4.320;2022-07-23T09:15:48;10.77;;;7.30;;
10761;SDS011;5433;50.862;4.320;2022-07-23T09:18:15;9.55;;;7.43;;
10761;SDS011;5433;50.862;4.320;2022-07-23T09:20:43;8.05;;;7.20;;
10761;SDS011;5433;50.862;4.320;2022-07-23T09:23:09;8.82;;;7.93;;
10761;SDS011;5433;50.862;4.320;2022-07-23T09:25:35;8.52;;;7.65;;
10761;SDS011;5433;50.862;4.320;2022-07-23T09:28:01;10.98;;;7.20;;
10761;SDS011;5433;50.862;4.320;2022-07-23T09:30:33;8.88;;;6.95;;
10761;SDS011;5433;50.862;4.320;2022-07-23T09:33:14;9.25;;;7.50;;
10761;SDS011;5433;50.862;4.320;2022-07-23T09:38:10;7.10;;;6.40;;
10761;SDS011;5433;50.862;4.320;2022-07-23T09:40:39;7.93;;;6.88;;
10761;SDS011;5433;50.862;4.320;2022-07-23T09:43:08;8.30;;;6.55;;
10761;SDS011;5433;50.862;4.320;2022-07-23T09:45:36;7.53;;;6.25;;
10761;SDS011;5433;50.862;4.320;2022-07-23T09:48:14;8.25;;;5.53;;
10761;SDS011;5433;50.862;4.320;2022-07-23T09:50:44;7.57;;;6.30;;
10761;SDS011;5433;50.862;4.320;2022-07-23T09:53:27;6.78;;;6.00;;
10761;SDS011;5433;50.862;4.320;2022-07-23T09:55:58;7.47;;;5.38;;
10761;SDS011;5433;50.862;4.320;2022-07-23T09:58:27;6.45;;;5.75;;
10761;SDS011;5433;50.862;4.320;2022-07-23T10:00:54;6.82;;;5.70;;
10761;SDS011;5433;50.862;4.320;2022-07-23T10:03:21;8.68;;;6.30;;
10761;SDS011;5433;50.862;4.320;2022-07-23T10:05:50;8.65;;;6.00;;
10761;SDS011;5433;50.862;4.320;2022-07-23T10:08:19;7.15;;;6.40;;
10761;SDS011;5433;50.862;4.320;2022-07-23T10:10:48;8.73;;;6.95;;
10761;SDS011;5433;50.862;4.320;2022-07-23T10:13:18;8.00;;;7.07;;
10761;SDS011;5433;50.862;4.320;2022-07-23T10:15:53;7.47;;;6.55;;
10761;SDS011;5433;50.862;4.320;2022-07-23T10:18:22;6.88;;;6.28;;
10761;SDS011;5433;50.862;4.320;2022-07-23T10:20:48;7.13;;;6.50;;
10761;SDS011;5433;50.862;4.320;2022-07-23T10:23:24;7.18;;;6.47;;
10761;SDS011;5433;50.862;4.320;2022-07-23T10:31:16;9.60;;;6.10;;
10761;SDS011;5433;50.862;4.320;2022-07-23T10:34:08;6.47;;;5.38;;
10761;SDS011;5433;50.862;4.320;2022-07-23T10:36:42;5.88;;;5.25;;
10761;SDS011;5433;50.862;4.320;2022-07-23T10:39:33;7.30;;;5.90;;
10761;SDS011;5433;50.862;4.320;2022-07-23T10:42:09;8.90;;;5.30;;
10761;SDS011;5433;50.862;4.320;2022-07-23T10:44:45;6.63;;;4.95;;
10761;SDS011;5433;50.862;4.320;2022-07-23T10:47:12;6.43;;;5.78;;
10761;SDS011;5433;50.862;4.320;2022-07-23T10:49:44;9.13;;;6.03;;
10761;SDS011;5433;50.862;4.320;2022-07-23T10:57:18;7.88;;;6.05;;
10761;SDS011;5433;50.862;4.320;2022-07-23T11:02:48;7.03;;;5.32;;
10761;SDS011;5433;50.862;4.320;2022-07-23T11:05:19;6.20;;;5.25;;
10761;SDS011;5433;50.862;4.320;2022-07-23T11:10:45;5.68;;;5.05;;
10761;SDS011;5433;50.862;4.320;2022-07-23T11:13:30;6.85;;;5.35;;
10761;SDS011;5433;50.862;4.320;2022-07-23T11:16:07;6.03;;;5.45;;
10761;SDS011;5433;50.862;4.320;2022-07-23T11:18:55;6.50;;;5.57;;
10761;SDS011;5433;50.862;4.320;2022-07-23T11:24:00;5.82;;;5.03;;
10761;SDS011;5433;50.862;4.320;2022-07-23T11:31:58;6.70;;;5.60;;
10761;SDS011;5433;50.862;4.320;2022-07-23T11:37:02;6.03;;;5.38;;
10761;SDS011;5433;50.862;4.320;2022-07-23T11:39:31;7.00;;;6.35;;
10761;SDS011;5433;50.862;4.320;2022-07-23T11:42:05;7.55;;;6.65;;
10761;SDS011;5433;50.862;4.320;2022-07-23T11:44:43;6.90;;;6.20;;
10761;SDS011;5433;50.862;4.320;2022-07-23T11:47:27;6.55;;;5.60;;
10761;SDS011;5433;50.862;4.320;2022-07-23T11:50:13;6.85;;;4.90;;
10761;SDS011;5433;50.862;4.320;2022-07-23T11:52:46;6.78;;;5.90;;
10761;SDS011;5433;50.862;4.320;2022-07-23T11:55:25;6.10;;;5.40;;
10761;SDS011;5433;50.862;4.320;2022-07-23T11:58:01;8.25;;;7.15;;
10761;SDS011;5433;50.862;4.320;2022-07-23T12:00:28;6.40;;;5.10;;
10761;SDS011;5433;50.862;4.320;2022-07-23T12:03:04;5.43;;;4.60;;
10761;SDS011;5433;50.862;4.320;2022-07-23T12:05:34;6.35;;;5.30;;
10761;SDS011;5433;50.862;4.320;2022-07-23T12:08:05;8.13;;;5.43;;
10761;SDS011;5433;50.862;4.320;2022-07-23T12:10:36;7.25;;;5.47;;
10761;SDS011;5433;50.862;4.320;2022-07-23T12:13:13;8.93;;;6.25;;
10761;SDS011;5433;50.862;4.320;2022-07-23T12:15:57;8.65;;;5.95;;
10761;SDS011;5433;50.862;4.320;2022-07-23T12:18:26;8.55;;;6.43;;
10761;SDS011;5433;50.862;4.320;2022-07-23T12:21:02;6.18;;;5.18;;
10761;SDS011;5433;50.862;4.320;2022-07-23T12:26:16;7.75;;;5.30;;
10761;SDS011;5433;50.862;4.320;2022-07-23T12:29:07;5.85;;;4.70;;
10761;SDS011;5433;50.862;4.320;2022-07-23T12:31:48;6.72;;;4.90;;
10761;SDS011;5433;50.862;4.320;2022-07-23T12:34:15;6.05;;;4.85;;
10761;SDS011;5433;50.862;4.320;2022-07-23T12:39:36;13.45;;;4.55;;
10761;SDS011;5433;50.862;4.320;2022-07-23T12:42:11;6.22;;;4.90;;
10761;SDS011;5433;50.862;4.320;2022-07-23T12:47:50;5.32;;;4.40;;
10761;SDS011;5433;50.862;4.320;2022-07-23T12:53:32;5.00;;;4.50;;
10761;SDS011;5433;50.862;4.320;2022-07-23T13:07:29;4.50;;;4.10;;
10761;SDS011;5433;50.862;4.320;2022-07-23T13:10:05;4.82;;;4.22;;
10761;SDS011;5433;50.862;4.320;2022-07-23T13:12:38;6.68;;;4.63;;
10761;SDS011;5433;50.862;4.320;2022-07-23T13:15:13;4.80;;;3.83;;
10761;SDS011;5433;50.862;4.320;2022-07-23T13:17:56;5.03;;;4.03;;
10761;SDS011;5433;50.862;4.320;2022-07-23T13:23:13;4.65;;;4.20;;
10761;SDS011;5433;50.862;4.320;2022-07-23T13:25:45;4.68;;;4.00;;
10761;SDS011;5433;50.862;4.320;2022-07-23T13:28:16;5.10;;;4.60;;
10761;SDS011;5433;50.862;4.320;2022-07-23T13:30:59;4.55;;;4.07;;
10761;SDS011;5433;50.862;4.320;2022-07-23T13:33:34;5.72;;;3.90;;
10761;SDS011;5433;50.862;4.320;2022-07-23T13:36:07;4.60;;;4.20;;
10761;SDS011;5433;50.862;4.320;2022-07-23T13:38:36;5.80;;;4.22;;
10761;SDS011;5433;50.862;4.320;2022-07-23T13:41:13;3.85;;;3.50;;
10761;SDS011;5433;50.862;4.320;2022-07-23T13:43:41;4.43;;;3.92;;
10761;SDS011;5433;50.862;4.320;2022-07-23T13:46:16;4.35;;;3.80;;
10761;SDS011;5433;50.862;4.320;2022-07-23T13:48:47;5.00;;;4.38;;
10761;SDS011;5433;50.862;4.320;2022-07-23T13:51:18;4.40;;;3.90;;
10761;SDS011;5433;50.862;4.320;2022-07-23T13:54:22;4.57;;;4.07;;
10761;SDS011;5433;50.862;4.320;2022-07-23T13:56:57;4.13;;;3.67;;
10761;SDS011;5433;50.862;4.320;2022-07-23T13:59:29;5.53;;;3.78;;
10761;SDS011;5433;50.862;4.320;2022-07-23T14:01:58;4.65;;;3.80;;
10761;SDS011;5433;50.862;4.320;2022-07-23T14:04:24;4.70;;;3.63;;
10761;SDS011;5433;50.862;4.320;2022-07-23T14:06:53;3.92;;;3.50;;
10761;SDS011;5433;50.862;4.320;2022-07-23T14:09:32;4.47;;;3.38;;
10761;SDS011;5433;50.862;4.320;2022-07-23T14:14:42;5.00;;;3.72;;
10761;SDS011;5433;50.862;4.320;2022-07-23T14:17:26;4.65;;;4.18;;
10761;SDS011;5433;50.862;4.320;2022-07-23T14:20:09;3.88;;;3.47;;
10761;SDS011;5433;50.862;4.320;2022-07-23T14:22:39;3.83;;;3.50;;
10761;SDS011;5433;50.862;4.320;2022-07-23T14:25:13;4.00;;;3.40;;
10761;SDS011;5433;50.862;4.320;2022-07-23T14:27:42;4.65;;;3.70;;
10761;SDS011;5433;50.862;4.320;2022-07-23T14:30:17;5.60;;;3.70;;
10761;SDS011;5433;50.862;4.320;2022-07-23T14:32:53;4.05;;;3.75;;
10761;SDS011;5433;50.862;4.320;2022-07-23T14:35:20;4.20;;;3.78;;
10761;SDS011;5433;50.862;4.320;2022-07-23T14:37:49;4.18;;;3.78;;
10761;SDS011;5433;50.862;4.320;2022-07-23T14:40:18;4.95;;;3.80;;
10761;SDS011;5433;50.862;4.320;2022-07-23T14:42:45;4.60;;;3.85;;
10761;SDS011;5433;50.862;4.320;2022-07-23T14:45:11;6.10;;;4.00;;
10761;SDS011;5433;50.862;4.320;2022-07-23T14:47:42;4.78;;;4.10;;
10761;SDS011;5433;50.862;4.320;2022-07-23T14:50:08;4.50;;;4.10;;
10761;SDS011;5433;50.862;4.320;2022-07-23T14:52:35;4.50;;;4.10;;
10761;SDS011;5433;50.862;4.320;2022-07-23T14:55:03;4.20;;;3.80;;
10761;SDS011;5433;50.862;4.320;2022-07-23T14:57:33;6.43;;;3.95;;
10761;SDS011;5433;50.862;4.320;2022-07-23T15:00:02;5.93;;;4.10;;
10761;SDS011;5433;50.862;4.320;2022-07-23T15:02:30;4.68;;;4.03;;
10761;SDS011;5433;50.862;4.320;2022-07-23T15:04:57;4.43;;;4.03;;
10761;SDS011;5433;50.862;4.320;2022-07-23T15:07:26;4.90;;;4.20;;
10761;SDS011;5433;50.862;4.320;2022-07-23T15:09:55;5.72;;;4.38;;
10761;SDS011;5433;50.862;4.320;2022-07-23T15:12:21;4.20;;;3.78;;
10761;SDS011;5433;50.862;4.320;2022-07-23T15:14:50;4.53;;;3.85;;
10761;SDS011;5433;50.862;4.320;2022-07-23T15:17:26;4.25;;;3.85;;
10761;SDS011;5433;50.862;4.320;2022-07-23T15:19:54;4.57;;;3.70;;
10761;SDS011;5433;50.862;4.320;2022-07-23T15:22:21;4.60;;;4.20;;
10761;SDS011;5433;50.862;4.320;2022-07-23T15:24:48;4.45;;;4.05;;
10761;SDS011;5433;50.862;4.320;2022-07-23T15:27:15;4.18;;;3.88;;
10761;SDS011;5433;50.862;4.320;2022-07-23T15:29:49;5.75;;;4.22;;
10761;SDS011;5433;50.862;4.320;2022-07-23T15:32:21;5.13;;;3.90;;
10761;SDS011;5433;50.862;4.320;2022-07-23T15:34:50;4.47;;;4.03;;
10761;SDS011;5433;50.862;4.320;2022-07-23T15:37:19;4.25;;;3.90;;
10761;SDS011;5433;50.862;4.320;2022-07-23T15:39:45;4.03;;;3.70;;
10761;SDS011;5433;50.862;4.320;2022-07-23T15:42:11;4.93;;;4.07;;
10761;SDS011;5433;50.862;4.320;2022-07-23T15:44:37;4.85;;;4.28;;
10761;SDS011;5433;50.862;4.320;2022-07-23T15:47:04;4.78;;;4.35;;
10761;SDS011;5433;50.862;4.320;2022-07-23T15:49:30;4.55;;;4.15;;
10761;SDS011;5433;50.862;4.320;2022-07-23T15:51:56;4.10;;;3.80;;
10761;SDS011;5433;50.862;4.320;2022-07-23T15:54:23;5.30;;;4.25;;
10761;SDS011;5433;50.862;4.320;2022-07-23T15:56:49;5.15;;;4.28;;
10761;SDS011;5433;50.862;4.320;2022-07-23T15:59:15;4.35;;;3.95;;
10761;SDS011;5433;50.862;4.320;2022-07-23T16:01:41;4.20;;;3.80;;
10761;SDS011;5433;50.862;4.320;2022-07-23T16:04:09;4.85;;;3.80;;
10761;SDS011;5433;50.862;4.320;2022-07-23T16:06:36;6.05;;;3.97;;
10761;SDS011;5433;50.862;4.320;2022-07-23T16:09:02;4.45;;;4.07;;
10761;SDS011;5433;50.862;4.320;2022-07-23T16:11:29;4.55;;;4.13;;